Time;durP1;ratioP1;P1;durP2;ratioP2;P2;SDS_P1;SDS_P2;PMS_P1;PMS_P2;Temp;Humidity;BMP_temperature;BMP_pressure;BME280_temperature;BME280_humidity;BME280_pressure;Samples;Min_cycle;Max_cycle;Signal;HPM_P1;HPM_P2
2022/05/19 00:01:08;;;;;;;6.68;4.32;;;19.50;1.00;;;;;;5072655;28;20620;-67
2022/05/19 00:03:37;;;;;;;6.68;4.55;;;19.50;1.00;;;;;;5065053;28;20207;-67
2022/05/19 00:06:06;;;;;;;8.07;4.82;;;19.50;1.00;;;;;;5073174;28;20210;-68
2022/05/19 00:08:35;;;;;;;5.82;4.60;;;19.50;1.00;;;;;;5073777;28;20198;-67
2022/05/19 00:11:06;;;;;;;7.03;4.43;;;19.50;1.00;;;;;;5066437;28;20693;-68
2022/05/19 00:13:33;;;;;;;6.70;4.03;;;19.40;1.00;;;;;;5073443;28;20244;-68
2022/05/19 00:16:00;;;;;;;5.07;4.28;;;19.40;1.00;;;;;;5073686;28;20242;-73
2022/05/19 00:18:27;;;;;;;5.13;4.47;;;19.30;1.00;;;;;;5065784;28;20279;-67
2022/05/19 00:20:55;;;;;;;7.65;4.50;;;19.20;1.00;;;;;;5065928;28;20202;-67
2022/05/19 00:23:22;;;;;;;6.95;4.95;;;19.10;1.00;;;;;;5055461;28;20235;-67
2022/05/19 00:25:50;;;;;;;4.78;4.32;;;19.10;1.00;;;;;;5073475;28;20198;-67
2022/05/19 00:28:17;;;;;;;5.80;4.45;;;19.30;1.00;;;;;;5071306;28;20722;-67
2022/05/19 00:30:45;;;;;;;6.47;4.82;;;19.00;1.00;;;;;;5071460;28;20214;-67
2022/05/19 00:33:13;;;;;;;7.25;4.60;;;18.70;1.00;;;;;;5062588;28;20253;-67
2022/05/19 00:35:42;;;;;;;8.35;5.13;;;18.80;1.00;;;;;;5065711;28;20241;-67
2022/05/19 00:38:09;;;;;;;5.93;5.20;;;18.70;1.00;;;;;;5057370;28;20199;-68
2022/05/19 00:40:37;;;;;;;6.93;5.32;;;18.60;1.90;;;;;;5062582;28;20458;-67
2022/05/19 00:43:06;;;;;;;7.78;5.38;;;18.70;14.80;;;;;;5072038;28;20455;-67
2022/05/19 00:45:42;;;;;;;5.78;5.22;;;18.70;1.00;;;;;;5069140;28;20238;-68
2022/05/19 00:48:17;;;;;;;7.50;5.40;;;18.50;37.00;;;;;;5071743;28;20198;-67
2022/05/19 00:50:47;;;;;;;6.70;5.45;;;18.40;97.30;;;;;;5054387;28;20226;-67
2022/05/19 00:53:32;;;;;;;6.35;5.53;;;18.40;95.00;;;;;;5053396;28;20203;-67
2022/05/19 00:56:02;;;;;;;6.40;5.07;;;18.70;1.00;;;;;;5071068;28;20487;-68
2022/05/19 00:58:35;;;;;;;7.25;5.45;;;18.90;1.00;;;;;;5071628;28;20261;-67
2022/05/19 01:01:04;;;;;;;7.28;5.18;;;19.10;1.00;;;;;;5053953;28;20206;-67
2022/05/19 01:03:39;;;;;;;5.85;5.15;;;19.10;1.00;;;;;;5061267;28;20718;-67
2022/05/19 01:06:12;;;;;;;7.47;5.32;;;19.00;1.00;;;;;;5068768;28;20243;-67
2022/05/19 01:08:43;;;;;;;6.43;5.22;;;19.00;1.00;;;;;;5071170;28;20632;-68
2022/05/19 01:11:11;;;;;;;9.15;5.32;;;18.90;1.00;;;;;;5072197;28;20226;-67
2022/05/19 01:13:39;;;;;;;6.07;5.05;;;18.80;1.00;;;;;;5071441;28;20194;-67
2022/05/19 01:16:08;;;;;;;9.45;5.43;;;18.90;1.00;;;;;;5069571;28;20271;-67
2022/05/19 01:18:37;;;;;;;6.35;5.00;;;18.90;1.00;;;;;;5071845;28;20198;-67
2022/05/19 01:21:06;;;;;;;7.53;5.80;;;18.90;1.00;;;;;;5062302;28;20211;-68
2022/05/19 01:23:44;;;;;;;7.22;5.15;;;18.80;1.00;;;;;;5072161;28;20285;-68
2022/05/19 01:26:22;;;;;;;6.93;4.93;;;18.80;1.00;;;;;;5071553;28;20234;-68
2022/05/19 01:28:51;;;;;;;7.45;4.90;;;18.90;1.00;;;;;;5053352;28;20207;-68
2022/05/19 01:31:32;;;;;;;7.93;5.00;;;19.00;1.00;;;;;;5068727;28;20272;-68
2022/05/19 01:34:00;;;;;;;6.25;5.10;;;19.00;1.00;;;;;;5071983;28;20711;-68
2022/05/19 01:36:27;;;;;;;8.82;5.00;;;19.00;1.00;;;;;;5063489;28;20257;-68
2022/05/19 01:38:59;;;;;;;5.20;4.80;;;19.10;1.00;;;;;;5051501;28;20199;-68
2022/05/19 01:41:44;;;;;;;5.13;4.50;;;19.00;1.00;;;;;;5069150;28;20208;-68
2022/05/19 01:44:29;;;;;;;7.38;4.85;;;18.90;1.00;;;;;;5071549;28;20202;-68
2022/05/19 01:47:06;;;;;;;6.75;4.85;;;18.80;1.00;;;;;;5069002;28;20198;-68
2022/05/19 01:49:42;;;;;;;7.20;4.68;;;18.90;1.00;;;;;;5069927;28;20710;-68
2022/05/19 01:52:15;;;;;;;5.93;4.82;;;18.80;1.00;;;;;;5054217;28;20681;-68
2022/05/19 01:54:49;;;;;;;6.65;4.60;;;18.80;1.00;;;;;;5061410;28;20199;-68
2022/05/19 01:57:22;;;;;;;6.60;4.82;;;18.70;1.00;;;;;;5063671;28;20202;-68
2022/05/19 01:59:59;;;;;;;7.18;4.72;;;18.70;1.00;;;;;;5064708;28;20203;-68
2022/05/19 02:02:35;;;;;;;8.40;4.80;;;18.70;1.00;;;;;;5055771;28;20252;-68
2022/05/19 02:05:08;;;;;;;6.85;5.05;;;18.70;1.00;;;;;;5065360;28;20245;-68
2022/05/19 02:07:38;;;;;;;7.10;4.85;;;18.70;1.00;;;;;;5054454;28;20207;-68
2022/05/19 02:10:10;;;;;;;6.15;4.65;;;18.60;1.00;;;;;;5069542;28;20202;-68
2022/05/19 02:12:38;;;;;;;6.75;4.70;;;18.80;1.00;;;;;;5070885;28;20230;-68
2022/05/19 02:15:11;;;;;;;6.68;5.45;;;18.80;1.00;;;;;;5069876;28;20236;-68
2022/05/19 02:17:38;;;;;;;6.53;4.82;;;18.70;1.00;;;;;;5070362;28;20331;-68
2022/05/19 02:20:10;;;;;;;6.68;5.00;;;18.70;1.00;;;;;;5068452;28;20190;-68
2022/05/19 02:22:39;;;;;;;7.10;5.55;;;18.80;1.00;;;;;;5055202;28;20202;-68
2022/05/19 02:25:14;;;;;;;6.30;5.18;;;18.70;1.00;;;;;;5058578;28;20206;-68
2022/05/19 02:27:46;;;;;;;7.30;5.18;;;18.60;1.00;;;;;;5062438;28;20239;-68
2022/05/19 02:30:19;;;;;;;6.13;4.80;;;18.70;1.00;;;;;;5071151;28;20194;-68
2022/05/19 02:32:47;;;;;;;5.05;4.55;;;18.70;1.00;;;;;;5070468;28;20226;-68
2022/05/19 02:35:15;;;;;;;5.45;4.72;;;19.00;1.00;;;;;;5057560;28;20210;-68
2022/05/19 02:37:42;;;;;;;8.38;5.03;;;19.30;99.90;;;;;;5063419;28;20238;-68
2022/05/19 02:40:10;;;;;;;6.80;4.93;;;19.20;99.90;;;;;;5070291;28;20198;-68
2022/05/19 02:42:38;;;;;;;7.95;5.38;;;19.10;1.00;;;;;;5068981;28;20669;-68
2022/05/19 02:45:05;;;;;;;8.45;4.97;;;19.00;1.00;;;;;;5070581;28;20198;-68
2022/05/19 02:47:34;;;;;;;6.85;5.03;;;18.90;1.00;;;;;;5069482;28;20227;-68
2022/05/19 02:50:01;;;;;;;7.43;5.07;;;18.70;1.00;;;;;;5056433;28;20694;-68
2022/05/19 02:52:28;;;;;;;8.73;5.03;;;18.70;1.00;;;;;;5050702;28;20591;-68
2022/05/19 02:54:55;;;;;;;4.90;4.50;;;18.60;1.00;;;;;;5065230;28;20202;-68
2022/05/19 02:57:22;;;;;;;7.03;4.30;;;18.50;1.00;;;;;;5051980;28;20635;-68
2022/05/19 02:59:49;;;;;;;5.40;4.90;;;18.40;1.00;;;;;;5063516;28;20246;-68
2022/05/19 03:02:16;;;;;;;7.00;5.47;;;18.50;1.00;;;;;;5070992;28;20260;-68
2022/05/19 03:04:45;;;;;;;6.60;5.43;;;18.40;1.00;;;;;;5070455;28;20267;-68
2022/05/19 03:07:12;;;;;;;6.45;5.40;;;18.30;1.00;;;;;;5068444;28;20210;-68
2022/05/19 03:09:40;;;;;;;8.27;5.85;;;18.10;1.00;;;;;;5070383;28;20202;-68
2022/05/19 03:12:09;;;;;;;6.07;5.45;;;18.10;1.00;;;;;;5067259;28;20232;-68
2022/05/19 03:14:35;;;;;;;6.15;5.30;;;18.00;1.00;;;;;;5069716;28;20696;-68
2022/05/19 03:17:05;;;;;;;7.35;5.22;;;17.90;1.00;;;;;;5069639;28;20198;-68
2022/05/19 03:19:32;;;;;;;8.50;5.97;;;18.30;1.00;;;;;;5060493;28;20206;-68
2022/05/19 03:22:02;;;;;;;6.75;5.22;;;18.30;1.00;;;;;;5051619;28;20265;-68
2022/05/19 03:24:29;;;;;;;7.95;5.10;;;18.30;1.00;;;;;;5050079;28;20297;-68
2022/05/19 03:26:56;;;;;;;6.10;5.05;;;18.50;1.00;;;;;;5050288;28;20253;-68
2022/05/19 03:29:23;;;;;;;6.30;4.50;;;18.70;1.00;;;;;;5049380;28;20279;-68
2022/05/19 03:31:50;;;;;;;6.78;4.78;;;18.80;1.00;;;;;;5049980;28;20297;-68
2022/05/19 03:34:17;;;;;;;6.43;4.97;;;18.90;1.00;;;;;;5050774;28;20195;-68
2022/05/19 03:36:44;;;;;;;5.40;4.90;;;19.10;99.90;;;;;;5058535;28;20211;-68
2022/05/19 03:39:13;;;;;;;9.02;6.88;;;19.30;1.00;;;;;;5058200;28;20202;-68
2022/05/19 03:41:40;;;;;;;7.50;5.07;;;19.30;1.00;;;;;;5051246;28;20248;-68
2022/05/19 03:44:08;;;;;;;7.47;4.95;;;19.60;1.00;;;;;;5051201;28;20242;-68
2022/05/19 03:46:35;;;;;;;5.43;4.90;;;19.70;1.00;;;;;;5050809;28;20726;-68
2022/05/19 03:49:02;;;;;;;7.07;5.03;;;19.80;99.90;;;;;;5061075;28;20608;-68
2022/05/19 03:51:33;;;;;;;14.68;5.60;;;19.80;13.00;;;;;;5074221;28;20222;-68
2022/05/19 03:54:00;;;;;;;6.78;4.53;;;19.80;99.90;;;;;;5068931;28;20225;-68
2022/05/19 03:56:29;;;;;;;9.07;4.53;;;19.90;99.90;;;;;;5070709;28;20714;-68
2022/05/19 03:58:56;;;;;;;5.53;5.00;;;20.10;99.90;;;;;;5070533;28;20599;-67
2022/05/19 04:01:23;;;;;;;7.22;5.10;;;20.20;1.00;;;;;;5058897;28;20203;-68
2022/05/19 04:03:50;;;;;;;4.88;4.28;;;20.00;1.00;;;;;;5065647;28;20259;-68
2022/05/19 04:06:18;;;;;;;6.60;4.75;;;20.00;99.90;;;;;;5069443;28;20195;-68
2022/05/19 04:08:46;;;;;;;5.22;4.57;;;20.00;1.00;;;;;;5072379;28;20559;-68
2022/05/19 04:11:13;;;;;;;5.70;5.03;;;20.10;99.90;;;;;;5072193;28;20882;-68
2022/05/19 04:13:42;;;;;;;5.35;4.60;;;20.20;1.00;;;;;;5068158;28;20203;-68
2022/05/19 04:16:09;;;;;;;5.10;4.60;;;20.20;1.00;;;;;;5058983;28;20225;-68
2022/05/19 04:18:37;;;;;;;6.55;5.13;;;20.20;1.00;;;;;;5064384;28;20249;-68
2022/05/19 04:21:06;;;;;;;6.80;4.68;;;20.20;1.00;;;;;;5064189;28;20209;-68
2022/05/19 04:23:33;;;;;;;5.35;4.43;;;20.20;1.00;;;;;;5068196;28;20206;-68
2022/05/19 04:26:00;;;;;;;6.22;4.60;;;20.20;1.00;;;;;;5059065;28;20203;-68
2022/05/19 04:28:28;;;;;;;7.13;5.15;;;20.20;1.00;;;;;;5059965;28;20718;-68
2022/05/19 04:30:56;;;;;;;5.45;4.72;;;20.10;99.90;;;;;;5060887;28;20202;-68
2022/05/19 04:33:23;;;;;;;6.93;5.10;;;20.10;99.90;;;;;;5058864;28;20230;-68
2022/05/19 04:35:50;;;;;;;6.65;4.93;;;20.10;99.90;;;;;;5057682;28;20215;-68
2022/05/19 04:38:18;;;;;;;6.70;4.75;;;20.10;1.00;;;;;;5059306;28;20226;-68
2022/05/19 04:40:48;;;;;;;6.28;4.68;;;20.20;1.00;;;;;;5063551;28;20253;-68
2022/05/19 04:43:19;;;;;;;9.63;5.45;;;20.20;1.00;;;;;;5064104;28;20733;-68
2022/05/19 04:45:47;;;;;;;15.88;12.95;;;20.30;1.00;;;;;;5066475;28;20242;-68
2022/05/19 04:48:16;;;;;;;4.55;4.15;;;20.30;99.90;;;;;;5055862;28;20696;-68
2022/05/19 04:50:44;;;;;;;6.65;4.88;;;20.40;99.90;;;;;;5063991;28;20199;-68
2022/05/19 04:53:11;;;;;;;7.28;4.80;;;20.40;1.00;;;;;;5059704;28;20268;-67
2022/05/19 04:55:40;;;;;;;6.78;4.80;;;20.40;1.00;;;;;;5066581;28;20198;-68
2022/05/19 04:58:08;;;;;;;5.93;4.60;;;20.50;99.90;;;;;;5057643;28;20237;-68
2022/05/19 05:00:36;;;;;;;6.22;5.15;;;20.50;1.00;;;;;;5057860;28;20290;-68
2022/05/19 05:03:08;;;;;;;6.28;4.80;;;20.50;1.00;;;;;;5065395;28;20202;-68
2022/05/19 05:05:36;;;;;;;5.30;4.80;;;20.60;1.00;;;;;;5057929;28;20272;-67
2022/05/19 05:08:04;;;;;;;9.10;5.53;;;20.60;1.00;;;;;;5065405;28;20260;-68
2022/05/19 05:10:31;;;;;;;7.15;4.63;;;20.60;99.90;;;;;;5054364;28;20235;-68
2022/05/19 05:12:58;;;;;;;7.28;4.50;;;20.80;1.00;;;;;;5062375;28;20226;-67
2022/05/19 05:15:25;;;;;;;6.60;4.45;;;20.80;1.00;;;;;;5064233;28;20206;-68
2022/05/19 05:17:52;;;;;;;5.57;4.40;;;20.70;99.90;;;;;;5062236;28;20198;-68
2022/05/19 05:20:19;;;;;;;7.55;4.22;;;20.80;1.00;;;;;;5059447;28;20235;-68
2022/05/19 05:22:47;;;;;;;4.93;4.18;;;20.90;99.90;;;;;;5064433;28;20218;-68
2022/05/19 05:25:16;;;;;;;5.68;4.30;;;20.90;99.90;;;;;;5055169;28;20202;-68
2022/05/19 05:27:43;;;;;;;5.93;4.32;;;20.90;3.30;;;;;;5067363;28;20203;-68
2022/05/19 05:30:12;;;;;;;8.63;6.75;;;20.90;1.00;;;;;;5056067;28;20666;-67
2022/05/19 05:32:40;;;;;;;6.82;4.45;;;21.00;99.90;;;;;;5058470;28;20349;-68
2022/05/19 05:35:11;;;;;;;5.00;4.10;;;21.10;1.00;;;;;;5067596;28;20214;-68
2022/05/19 05:37:38;;;;;;;5.32;4.30;;;21.10;1.00;;;;;;5057914;28;20214;-68
2022/05/19 05:40:08;;;;;;;6.18;4.55;;;21.20;1.00;;;;;;5068475;28;20245;-67
2022/05/19 05:42:35;;;;;;;5.57;4.22;;;21.30;99.90;;;;;;5058090;28;20239;-68
2022/05/19 05:45:02;;;;;;;4.18;3.65;;;21.20;1.00;;;;;;5062831;28;20281;-68
2022/05/19 05:47:29;;;;;;;6.50;4.07;;;21.30;1.00;;;;;;5056222;28;20655;-68
2022/05/19 05:49:56;;;;;;;4.60;4.20;;;21.40;1.00;;;;;;5066545;28;20209;-68
2022/05/19 05:52:24;;;;;;;7.13;4.32;;;21.50;1.00;;;;;;5059707;28;20219;-68
2022/05/19 05:54:51;;;;;;;4.95;3.70;;;21.40;1.00;;;;;;5064807;28;20267;-68
2022/05/19 05:57:19;;;;;;;5.60;4.00;;;21.40;1.00;;;;;;5054811;28;20207;-68
2022/05/19 05:59:46;;;;;;;4.70;4.30;;;21.40;99.90;;;;;;5066684;28;20719;-68
2022/05/19 06:02:13;;;;;;;4.03;3.65;;;21.50;1.00;;;;;;5062066;28;20627;-68
2022/05/19 06:04:40;;;;;;;5.47;4.03;;;21.50;1.00;;;;;;5058852;28;20210;-68
2022/05/19 06:07:07;;;;;;;5.75;3.88;;;21.50;1.00;;;;;;5067173;28;20214;-68
2022/05/19 06:09:34;;;;;;;5.72;4.05;;;21.50;1.00;;;;;;5056407;28;20203;-68
2022/05/19 06:12:01;;;;;;;4.47;3.78;;;21.50;1.00;;;;;;5060598;28;20203;-68
2022/05/19 06:14:30;;;;;;;4.65;4.03;;;21.60;99.90;;;;;;5057080;28;20731;-68
2022/05/19 06:16:57;;;;;;;7.70;4.13;;;21.60;99.90;;;;;;5062789;28;20252;-68
2022/05/19 06:19:24;;;;;;;4.38;3.60;;;21.70;99.90;;;;;;5055907;28;20225;-68
2022/05/19 06:21:51;;;;;;;4.28;3.97;;;21.80;1.00;;;;;;5060757;28;20202;-68
2022/05/19 06:24:18;;;;;;;5.82;4.00;;;21.70;17.80;;;;;;5060115;28;20256;-68
2022/05/19 06:26:45;;;;;;;7.35;4.00;;;21.80;1.00;;;;;;5063746;28;20199;-68
2022/05/19 06:29:12;;;;;;;4.32;3.75;;;21.80;1.00;;;;;;5053943;28;20202;-68
2022/05/19 06:31:40;;;;;;;4.78;3.90;;;22.00;1.00;;;;;;5066390;28;20209;-68
2022/05/19 06:34:07;;;;;;;4.70;3.70;;;22.00;1.00;;;;;;5055914;28;20226;-68
2022/05/19 06:36:35;;;;;;;4.55;4.15;;;22.10;1.00;;;;;;5057966;28;20214;-68
2022/05/19 06:39:02;;;;;;;6.10;3.95;;;22.10;1.00;;;;;;5061513;28;20198;-72
2022/05/19 06:44:17;;;;;;;4.25;3.85;;;22.10;92.40;;;;;;5051264;28;20316;-72
2022/05/19 06:46:46;;;;;;;6.68;4.10;;;22.20;99.90;;;;;;5050706;28;20222;-72
2022/05/19 06:49:13;;;;;;;4.57;4.18;;;22.30;99.90;;;;;;5050977;28;20252;-72
2022/05/19 06:51:40;;;;;;;4.43;3.47;;;22.50;99.90;;;;;;5049938;28;20203;-72
2022/05/19 06:54:07;;;;;;;6.15;3.75;;;22.40;1.00;;;;;;5049534;28;20226;-72
2022/05/19 06:56:35;;;;;;;4.47;3.65;;;22.60;1.00;;;;;;5052511;28;20203;-73
2022/05/19 06:59:04;;;;;;;5.68;3.70;;;22.50;1.00;;;;;;5070273;28;20645;-72
2022/05/19 07:01:31;;;;;;;4.30;3.88;;;22.60;1.00;;;;;;5069781;28;20568;-72
2022/05/19 07:03:59;;;;;;;4.25;3.85;;;22.60;1.00;;;;;;5069979;28;20190;-72
2022/05/19 07:06:26;;;;;;;6.30;4.10;;;22.70;1.00;;;;;;5068582;28;20255;-72
2022/05/19 07:08:53;;;;;;;3.97;3.53;;;22.80;99.90;;;;;;5070254;28;20271;-72
2022/05/19 07:11:27;;;;;;;4.07;3.50;;;23.00;99.90;;;;;;5069773;28;20199;-72
2022/05/19 07:13:55;;;;;;;4.35;3.50;;;23.10;99.90;;;;;;5068874;28;20253;-72
2022/05/19 07:16:22;;;;;;;4.95;3.65;;;23.20;99.90;;;;;;5070407;28;20190;-72
2022/05/19 07:18:50;;;;;;;6.75;4.13;;;23.20;10.10;;;;;;5067299;28;20198;-72
2022/05/19 07:21:19;;;;;;;3.80;3.50;;;23.40;99.90;;;;;;5068688;28;20277;-72
2022/05/19 07:23:47;;;;;;;5.65;4.38;;;23.30;19.30;;;;;;5061345;28;20215;-72
2022/05/19 07:26:14;;;;;;;4.10;3.70;;;23.40;1.00;;;;;;5068645;28;20194;-72
2022/05/19 07:28:41;;;;;;;6.55;3.90;;;23.40;1.00;;;;;;5056732;28;20203;-72
2022/05/19 07:31:08;;;;;;;5.13;3.80;;;23.60;1.00;;;;;;5052375;28;20206;-72
2022/05/19 07:33:37;;;;;;;5.40;4.20;;;23.70;1.00;;;;;;5069878;28;20257;-72
2022/05/19 07:36:08;;;;;;;4.72;4.28;;;23.50;1.00;;;;;;5070652;28;20215;-72
2022/05/19 07:38:37;;;;;;;4.28;3.88;;;23.70;1.00;;;;;;5062515;28;20298;-72
2022/05/19 07:41:04;;;;;;;6.03;3.42;;;23.80;1.00;;;;;;5053158;28;20646;-72
2022/05/19 07:43:37;;;;;;;5.15;3.47;;;23.90;1.00;;;;;;5054411;28;20213;-72
2022/05/19 07:46:06;;;;;;;5.40;3.30;;;23.90;1.00;;;;;;5055127;28;20249;-73
2022/05/19 07:48:33;;;;;;;5.15;4.53;;;23.70;1.00;;;;;;5056031;28;20256;-72
2022/05/19 07:51:01;;;;;;;4.15;3.47;;;23.90;1.00;;;;;;5074451;28;20229;-72
2022/05/19 07:53:28;;;;;;;6.57;3.88;;;24.00;1.00;;;;;;5069331;28;20267;-72
2022/05/19 07:55:57;;;;;;;4.50;3.38;;;24.10;1.00;;;;;;5074479;28;20247;-72
2022/05/19 07:58:24;;;;;;;3.42;3.13;;;24.10;1.00;;;;;;5074459;28;20267;-72
2022/05/19 08:00:52;;;;;;;4.18;3.63;;;24.20;1.00;;;;;;5072334;28;20206;-72
2022/05/19 08:03:22;;;;;;;4.35;3.88;;;24.30;1.00;;;;;;5069025;28;20286;-72
2022/05/19 08:05:50;;;;;;;4.53;3.30;;;24.20;1.00;;;;;;5073652;28;20234;-72
2022/05/19 08:08:17;;;;;;;4.70;4.28;;;24.30;1.00;;;;;;5057082;28;20199;-73
2022/05/19 08:10:44;;;;;;;5.47;4.05;;;24.50;1.00;;;;;;5071922;28;20198;-72
2022/05/19 08:15:57;;;;;;;3.70;3.40;;;24.50;1.00;;;;;;5074750;28;20660;-72
2022/05/19 08:18:27;;;;;;;3.85;3.45;;;24.50;1.00;;;;;;5057911;28;20207;-73
2022/05/19 08:20:57;;;;;;;5.40;3.72;;;24.50;1.00;;;;;;5053864;28;20203;-72
2022/05/19 08:23:27;;;;;;;4.97;3.38;;;24.50;1.00;;;;;;5054356;28;20651;-72
2022/05/19 08:25:55;;;;;;;3.95;3.40;;;24.50;1.00;;;;;;5052962;28;20265;-72
2022/05/19 08:28:29;;;;;;;4.38;3.83;;;24.70;1.00;;;;;;5068356;28;20309;-72
2022/05/19 08:30:58;;;;;;;4.43;3.30;;;24.80;1.00;;;;;;5073973;28;20206;-72
2022/05/19 08:33:26;;;;;;;5.88;3.67;;;24.80;1.00;;;;;;5073577;28;20219;-73
2022/05/19 08:35:54;;;;;;;4.28;3.50;;;24.90;1.00;;;;;;5073934;28;20245;-72
2022/05/19 08:38:22;;;;;;;6.72;3.65;;;25.00;1.00;;;;;;5073305;28;20622;-72
2022/05/19 08:40:51;;;;;;;3.60;3.30;;;25.20;1.00;;;;;;5073463;28;20213;-72
2022/05/19 08:43:22;;;;;;;4.30;3.72;;;25.00;1.00;;;;;;5063254;28;20206;-72
2022/05/19 08:45:55;;;;;;;4.75;3.55;;;25.00;1.00;;;;;;5072086;28;20256;-73
2022/05/19 08:48:25;;;;;;;5.38;3.95;;;25.30;1.00;;;;;;5062949;28;20206;-72
2022/05/19 08:50:59;;;;;;;5.82;3.78;;;25.40;1.00;;;;;;5053670;28;20699;-72
2022/05/19 08:53:31;;;;;;;4.10;3.60;;;25.60;1.00;;;;;;5052596;28;20284;-72
2022/05/19 08:56:01;;;;;;;6.03;3.75;;;25.90;1.00;;;;;;5052686;28;20199;-72
2022/05/19 08:58:44;;;;;;;4.80;3.83;;;26.30;1.00;;;;;;5054043;28;20657;-72
2022/05/19 09:01:19;;;;;;;4.10;3.63;;;26.10;1.00;;;;;;5069517;28;20206;-72
2022/05/19 09:03:59;;;;;;;5.18;3.15;;;26.80;1.00;;;;;;5073040;28;20204;-72
2022/05/19 09:07:56;;;;;;;7.30;3.63;;;26.90;1.00;;;;;;5069269;28;20198;-72
2022/05/19 09:09:40;;;;;;;6.05;3.95;;;27.10;1.00;;;;;;5070838;28;20251;-72
2022/05/19 09:12:14;;;;;;;5.47;3.47;;;27.30;1.00;;;;;;5070663;28;20212;-73
2022/05/19 09:14:41;;;;;;;4.38;3.90;;;27.30;1.00;;;;;;5069228;28;20214;-72
2022/05/19 09:17:12;;;;;;;4.82;3.53;;;27.20;1.00;;;;;;5072874;28;20202;-73
2022/05/19 09:19:44;;;;;;;4.35;3.50;;;27.40;1.00;;;;;;5062330;28;20202;-72
2022/05/19 09:22:13;;;;;;;3.60;3.28;;;27.30;1.00;;;;;;5053411;28;20253;-72
2022/05/19 09:24:44;;;;;;;4.07;3.55;;;27.50;1.00;;;;;;5053081;28;20257;-72
2022/05/19 09:27:12;;;;;;;6.93;3.53;;;27.00;99.90;;;;;;5052759;28;20325;-72
2022/05/19 09:29:44;;;;;;;6.80;3.47;;;27.40;99.90;;;;;;5054919;28;20586;-73
2022/05/19 09:32:18;;;;;;;5.70;3.60;;;27.90;99.90;;;;;;5069836;28;20681;-72
2022/05/19 09:34:48;;;;;;;4.55;3.67;;;27.90;99.90;;;;;;5070090;28;20209;-72
2022/05/19 09:37:17;;;;;;;6.20;3.83;;;28.20;99.90;;;;;;5067141;28;20256;-72
2022/05/19 09:39:51;;;;;;;6.43;3.88;;;28.50;99.90;;;;;;5052294;28;20219;-72
2022/05/19 09:42:23;;;;;;;6.03;3.75;;;28.00;99.90;;;;;;5051358;28;20637;-73
2022/05/19 09:44:55;;;;;;;9.15;4.10;;;27.90;99.90;;;;;;5051021;28;20207;-73
2022/05/19 09:47:31;;;;;;;5.30;4.43;;;28.30;99.90;;;;;;5052251;28;20332;-68
2022/05/19 09:50:06;;;;;;;4.78;3.55;;;28.50;99.90;;;;;;5052361;28;20201;-68
2022/05/19 09:52:34;;;;;;;4.93;3.45;;;28.40;99.90;;;;;;5064027;28;20247;-68
2022/05/19 09:55:05;;;;;;;4.03;3.60;;;28.30;99.90;;;;;;5071389;28;20262;-68
2022/05/19 09:57:43;;;;;;;4.53;3.20;;;28.10;99.90;;;;;;5070995;28;20209;-68
2022/05/19 10:00:19;;;;;;;5.68;3.80;;;28.00;99.90;;;;;;5052143;28;20528;-68
2022/05/19 10:02:52;;;;;;;5.32;3.67;;;28.30;99.90;;;;;;5063830;28;20206;-68
2022/05/19 10:05:25;;;;;;;4.28;3.60;;;28.10;99.90;;;;;;5071469;28;20536;-69
2022/05/19 10:08:00;;;;;;;4.78;3.65;;;28.60;99.90;;;;;;5072301;28;20293;-69
2022/05/19 10:10:30;;;;;;;3.63;3.33;;;29.10;99.90;;;;;;5068884;28;20263;-69
2022/05/19 10:13:03;;;;;;;4.10;3.70;;;29.40;99.90;;;;;;5072138;28;20832;-69
2022/05/19 10:15:54;;;;;;;3.60;3.30;;;29.10;99.90;;;;;;5071363;28;20213;-69
2022/05/19 10:18:41;;;;;;;4.93;3.95;;;29.20;99.90;;;;;;5070556;28;20198;-69
2022/05/19 10:21:19;;;;;;;6.38;3.55;;;29.10;99.90;;;;;;5071471;28;20563;-69
2022/05/19 10:24:12;;;;;;;3.78;3.47;;;29.50;99.90;;;;;;5070267;28;20530;-69
2022/05/19 10:26:48;;;;;;;4.65;3.58;;;29.40;99.90;;;;;;5071398;28;20289;-68
2022/05/19 10:32:40;;;;;;;5.28;3.78;;;29.70;99.90;;;;;;5064550;28;20209;-68
2022/05/19 10:35:16;;;;;;;3.78;3.35;;;29.10;99.90;;;;;;5051797;28;20277;-69
2022/05/19 10:37:56;;;;;;;5.70;3.72;;;29.40;99.90;;;;;;5051433;28;20199;-69
2022/05/19 10:40:35;;;;;;;4.07;3.33;;;29.80;99.90;;;;;;5067074;28;20199;-68
2022/05/19 10:43:13;;;;;;;4.85;3.40;;;29.40;99.90;;;;;;5051590;28;20210;-68
2022/05/19 10:45:44;;;;;;;4.70;3.17;;;29.60;99.90;;;;;;5049837;28;20195;-68
2022/05/19 10:48:42;;;;;;;4.75;3.50;;;29.80;99.90;;;;;;5050719;28;20202;-68
2022/05/19 10:51:14;;;;;;;3.95;3.50;;;29.50;99.90;;;;;;5034169;28;20301;-68
2022/05/19 10:54:10;;;;;;;4.82;3.40;;;29.40;99.90;;;;;;5051119;28;20231;-68
2022/05/19 10:56:56;;;;;;;5.90;3.60;;;29.60;99.90;;;;;;5050937;28;20218;-68
2022/05/19 10:59:37;;;;;;;5.45;3.35;;;29.30;99.90;;;;;;5049919;28;20199;-68
2022/05/19 11:02:22;;;;;;;3.42;3.13;;;28.90;99.90;;;;;;5050824;28;20325;-68
2022/05/19 11:05:09;;;;;;;5.75;3.40;;;28.90;99.90;;;;;;5050735;28;20214;-68
2022/05/19 11:07:49;;;;;;;3.80;3.13;;;30.20;99.90;;;;;;5050153;28;20206;-68
2022/05/19 11:10:32;;;;;;;3.63;2.90;;;30.10;99.90;;;;;;5050113;28;20203;-69
2022/05/19 11:13:14;;;;;;;3.53;3.22;;;30.60;99.90;;;;;;5050656;28;20242;-70
2022/05/19 11:15:45;;;;;;;4.40;3.10;;;30.40;99.90;;;;;;5049635;28;20409;-69
2022/05/19 11:18:17;;;;;;;3.88;3.58;;;31.20;99.90;;;;;;5054168;28;20660;-68
2022/05/19 11:21:00;;;;;;;3.38;3.08;;;30.60;99.90;;;;;;5055568;28;20645;-68
2022/05/19 11:23:39;;;;;;;6.07;3.13;;;30.50;99.90;;;;;;5055095;28;20202;-69
2022/05/19 11:26:24;;;;;;;4.05;3.58;;;30.10;99.90;;;;;;5052596;28;20619;-68
2022/05/19 11:29:02;;;;;;;3.90;2.90;;;30.30;99.90;;;;;;5054398;28;20569;-68
2022/05/19 11:31:36;;;;;;;6.32;3.30;;;30.50;99.90;;;;;;5053341;28;20206;-69
2022/05/19 11:34:20;;;;;;;5.05;3.50;;;30.10;99.90;;;;;;5053846;28;20230;-68
2022/05/19 11:36:55;;;;;;;3.45;3.13;;;29.80;99.90;;;;;;5053409;28;20213;-68
2022/05/19 11:39:31;;;;;;;5.65;2.97;;;30.00;99.90;;;;;;5053781;28;20226;-69
2022/05/19 11:42:05;;;;;;;7.95;3.38;;;29.70;99.90;;;;;;5056543;28;20211;-69
2022/05/19 11:44:38;;;;;;;6.25;3.13;;;30.10;99.90;;;;;;5070135;28;20245;-69
2022/05/19 11:47:13;;;;;;;3.55;2.95;;;30.80;99.90;;;;;;5062050;28;20207;-68
2022/05/19 11:55:29;;;;;;;5.38;3.22;;;30.30;99.90;;;;;;5074136;28;20264;-69
2022/05/19 11:58:01;;;;;;;3.15;2.92;;;30.50;99.90;;;;;;5069234;28;20202;-68
2022/05/19 12:00:32;;;;;;;5.35;3.45;;;30.70;99.90;;;;;;5089860;28;20532;-69
2022/05/19 12:03:04;;;;;;;3.40;3.03;;;30.90;99.90;;;;;;5074857;28;20216;-68
2022/05/19 12:05:35;;;;;;;3.05;2.83;;;30.80;99.90;;;;;;5068891;28;20456;-69
2022/05/19 12:08:13;;;;;;;3.13;2.92;;;30.60;99.90;;;;;;5067107;28;20214;-68
2022/05/19 12:10:47;;;;;;;3.90;2.90;;;30.00;99.90;;;;;;5072431;28;20217;-68
2022/05/19 12:13:19;;;;;;;3.28;2.75;;;31.00;99.90;;;;;;5071952;28;20653;-68
2022/05/19 12:15:54;;;;;;;4.25;2.90;;;30.50;99.90;;;;;;5074446;28;20570;-68
2022/05/19 12:18:43;;;;;;;7.57;3.67;;;30.40;99.90;;;;;;5063823;28;20892;-68
2022/05/19 12:21:40;;;;;;;3.10;2.80;;;30.60;99.90;;;;;;5054566;28;20561;-68
2022/05/19 12:24:09;;;;;;;2.88;2.67;;;31.10;99.90;;;;;;5069073;28;20203;-68
2022/05/19 12:26:54;;;;;;;3.33;2.78;;;30.90;99.90;;;;;;5053719;28;20239;-68
2022/05/19 12:29:35;;;;;;;5.13;3.13;;;30.90;99.90;;;;;;5052791;28;20206;-68
2022/05/19 12:32:23;;;;;;;3.95;2.97;;;30.90;99.90;;;;;;5053562;28;20889;-68
2022/05/19 12:34:51;;;;;;;3.75;2.88;;;31.00;99.90;;;;;;5053531;28;20615;-68
2022/05/19 12:37:42;;;;;;;5.75;3.25;;;30.50;99.90;;;;;;5053699;28;20233;-68
2022/05/19 12:40:23;;;;;;;5.13;2.78;;;30.90;99.90;;;;;;5053737;28;20253;-68
2022/05/19 12:43:08;;;;;;;8.07;2.92;;;31.20;99.90;;;;;;5068956;28;20202;-68
2022/05/19 12:45:42;;;;;;;4.18;2.90;;;30.80;99.90;;;;;;5074092;28;20202;-69
2022/05/19 12:48:25;;;;;;;7.53;3.33;;;30.40;99.90;;;;;;5057648;28;20229;-68
2022/05/19 12:51:11;;;;;;;3.88;3.15;;;31.10;99.90;;;;;;5053221;28;20206;-72
2022/05/19 12:53:46;;;;;;;3.92;3.50;;;31.00;99.90;;;;;;5053032;28;20268;-72
2022/05/19 12:56:56;;;;;;;3.28;2.80;;;30.80;99.90;;;;;;5056082;28;20244;-72
2022/05/19 12:59:52;;;;;;;5.28;2.50;;;31.10;99.90;;;;;;5070165;28;20202;-73
2022/05/19 13:02:25;;;;;;;3.65;3.10;;;30.90;99.90;;;;;;5057483;28;20252;-72
2022/05/19 13:04:57;;;;;;;5.07;3.08;;;31.20;99.90;;;;;;5069998;28;20260;-72
2022/05/19 13:07:28;;;;;;;3.97;2.78;;;30.80;99.90;;;;;;5054091;28;20265;-72
2022/05/19 13:10:09;;;;;;;6.18;3.45;;;30.70;99.90;;;;;;5066820;28;20633;-72
2022/05/19 13:12:46;;;;;;;5.47;3.05;;;30.90;99.90;;;;;;5073075;28;20308;-72
2022/05/19 13:15:23;;;;;;;3.05;2.75;;;30.70;99.90;;;;;;5061330;28;20223;-72
2022/05/19 13:17:53;;;;;;;6.97;3.10;;;30.40;99.90;;;;;;5053537;28;20207;-73
2022/05/19 13:20:24;;;;;;;4.45;2.63;;;30.60;99.90;;;;;;5067149;28;20209;-73
2022/05/19 13:22:55;;;;;;;2.97;2.78;;;30.80;99.90;;;;;;5053624;28;20618;-73
2022/05/19 13:25:22;;;;;;;3.25;2.95;;;30.40;99.90;;;;;;5066496;28;20211;-72
2022/05/19 13:30:55;;;;;;;3.42;3.13;;;30.40;99.90;;;;;;5057060;28;20220;-72
2022/05/19 13:33:26;;;;;;;3.55;2.85;;;30.60;99.90;;;;;;5072953;28;20221;-73